Time;durP1;ratioP1;P1;durP2;ratioP2;P2;SDS_P1;SDS_P2;PMS_P1;PMS_P2;Temp;Humidity;BMP_temperature;BMP_pressure;BME280_temperature;BME280_humidity;BME280_pressure;Samples;Min_cycle;Max_cycle;Signal;HPM_P1;HPM_P2
2023/09/07 00:00:58;;;;;;;2.88;2.47;;;;;;;18.54;54.88;95975.66;5023430;28;20225;-82
2023/09/07 00:03:24;;;;;;;2.85;2.65;;;;;;;18.48;55.01;95976.44;5035768;28;20203;-83
2023/09/07 00:05:49;;;;;;;4.47;2.90;;;;;;;18.41;54.88;95975.53;5029312;28;20192;-83
2023/09/07 00:08:14;;;;;;;4.25;2.65;;;;;;;18.32;55.15;95974.84;5025678;28;20193;-82
2023/09/07 00:10:39;;;;;;;8.05;3.95;;;;;;;18.27;55.27;95968.50;5047017;28;20181;-83
2023/09/07 00:13:05;;;;;;;4.32;2.75;;;;;;;18.23;55.87;95972.50;5028222;28;20202;-82
2023/09/07 00:15:36;;;;;;;4.20;3.00;;;;;;;18.17;55.73;95974.03;5035963;28;20185;-82
2023/09/07 00:18:01;;;;;;;3.10;2.80;;;;;;;18.15;55.64;95970.78;5046257;28;20214;-84
2023/09/07 00:20:27;;;;;;;3.00;2.70;;;;;;;18.12;56.11;95971.16;5044719;28;20225;-82
2023/09/07 00:22:52;;;;;;;3.22;2.80;;;;;;;18.09;56.13;95966.25;5041711;28;20305;-82
2023/09/07 00:25:18;;;;;;;2.97;2.72;;;;;;;18.06;56.29;95966.63;5023834;28;20301;-83
2023/09/07 00:27:43;;;;;;;3.13;2.83;;;;;;;18.04;56.47;95966.81;5041789;28;20224;-82
2023/09/07 00:30:09;;;;;;;3.63;2.92;;;;;;;18.03;56.36;95964.38;5030312;28;20183;-82
2023/09/07 00:32:38;;;;;;;3.72;2.60;;;;;;;18.11;56.42;95964.28;5027351;28;20209;-83
2023/09/07 00:35:04;;;;;;;3.13;2.70;;;;;;;18.10;56.61;95970.50;5047270;28;20179;-82
2023/09/07 00:37:29;;;;;;;3.28;2.95;;;;;;;18.10;56.56;95960.00;5036222;28;20667;-82
2023/09/07 00:39:55;;;;;;;5.75;2.80;;;;;;;18.11;56.85;95959.84;5027037;28;20193;-83
2023/09/07 00:42:20;;;;;;;4.22;2.53;;;;;;;18.06;56.99;95958.75;5045011;28;20217;-82
2023/09/07 00:44:46;;;;;;;3.72;3.25;;;;;;;17.99;57.02;95956.03;5024700;28;20210;-83
2023/09/07 00:47:11;;;;;;;4.85;2.60;;;;;;;18.02;57.00;95958.31;5046155;28;20182;-81
2023/09/07 00:49:37;;;;;;;3.42;2.90;;;;;;;18.09;56.77;95961.00;5020228;28;20795;-82
2023/09/07 00:52:04;;;;;;;6.32;2.90;;;;;;;18.02;56.75;95957.47;5027625;28;20195;-83
2023/09/07 00:54:30;;;;;;;5.97;3.10;;;;;;;17.97;57.35;95965.09;5041376;28;20274;-81
2023/09/07 00:56:55;;;;;;;6.15;3.08;;;;;;;17.96;56.88;95959.03;5028008;28;20644;-84
2023/09/07 00:59:21;;;;;;;4.35;2.80;;;;;;;17.97;57.41;95960.66;5026636;28;20622;-82
2023/09/07 01:01:46;;;;;;;3.20;2.90;;;;;;;17.95;57.66;95959.22;5025014;28;20204;-82
2023/09/07 01:04:11;;;;;;;3.40;3.08;;;;;;;17.91;57.25;95961.38;5033557;28;20214;-83
2023/09/07 01:06:39;;;;;;;3.47;2.58;;;;;;;17.92;57.63;95959.56;5044845;28;20222;-83
2023/09/07 01:09:11;;;;;;;3.28;2.97;;;;;;;17.90;57.59;95953.69;5027996;28;20190;-83
2023/09/07 01:11:37;;;;;;;3.13;2.80;;;;;;;17.85;57.53;95956.06;5033749;28;20201;-83
2023/09/07 01:14:04;;;;;;;3.55;3.05;;;;;;;17.87;57.91;95959.31;5046243;28;20173;-82
2023/09/07 01:16:29;;;;;;;3.20;2.90;;;;;;;17.95;57.42;95951.34;5046243;28;20264;-81
2023/09/07 01:18:55;;;;;;;3.20;2.90;;;;;;;17.98;57.70;95945.72;5025003;28;20633;-82
2023/09/07 01:21:20;;;;;;;3.33;2.90;;;;;;;17.96;57.45;95950.34;5027212;28;20190;-82
2023/09/07 01:23:46;;;;;;;3.70;2.47;;;;;;;18.01;57.45;95951.41;5032858;28;20218;-83
2023/09/07 01:26:12;;;;;;;3.15;2.80;;;;;;;17.89;58.12;95946.81;5026136;28;20235;-82
2023/09/07 01:28:37;;;;;;;3.22;2.88;;;;;;;17.91;58.18;95937.75;5034360;28;20182;-83
2023/09/07 01:31:03;;;;;;;5.03;3.05;;;;;;;17.94;58.06;95941.84;5042471;28;20175;-82
2023/09/07 01:33:28;;;;;;;3.70;2.80;;;;;;;17.95;58.06;95946.09;5025254;28;20288;-83
2023/09/07 01:35:54;;;;;;;3.45;2.88;;;;;;;17.91;57.95;95950.06;5040559;28;20240;-84
2023/09/07 01:38:19;;;;;;;4.43;2.97;;;;;;;17.88;57.68;95948.63;5037431;28;20240;-83
2023/09/07 01:40:45;;;;;;;3.33;3.03;;;;;;;17.80;58.20;95949.53;5032961;28;20239;-83
2023/09/07 01:43:10;;;;;;;3.22;2.53;;;;;;;17.78;58.17;95948.91;5044290;28;20194;-83
2023/09/07 01:45:35;;;;;;;3.30;3.00;;;;;;;17.78;58.41;95945.47;5030121;28;20222;-82
2023/09/07 01:48:01;;;;;;;3.45;3.10;;;;;;;17.74;58.38;95944.19;5021370;28;20209;-83
2023/09/07 01:50:26;;;;;;;2.90;2.70;;;;;;;17.73;58.28;95943.38;5035975;28;20639;-82
2023/09/07 01:52:52;;;;;;;2.95;2.65;;;;;;;17.77;58.39;95946.47;5025981;28;20204;-82
2023/09/07 01:55:17;;;;;;;3.50;2.92;;;;;;;17.76;58.60;95937.78;5042029;28;20193;-84
2023/09/07 01:57:43;;;;;;;2.90;2.70;;;;;;;17.78;58.65;95937.59;5043415;28;20186;-83
2023/09/07 02:00:10;;;;;;;4.22;2.90;;;;;;;17.83;58.40;95933.41;5024236;28;20185;-83
2023/09/07 02:02:35;;;;;;;3.17;2.88;;;;;;;17.81;58.63;95935.41;5041124;28;20221;-83
2023/09/07 02:05:01;;;;;;;4.28;2.75;;;;;;;17.83;58.58;95943.09;5040293;28;20206;-83
2023/09/07 02:07:26;;;;;;;4.25;3.40;;;;;;;17.88;58.17;95939.94;5041039;28;20189;-84
2023/09/07 02:09:51;;;;;;;5.53;3.10;;;;;;;17.92;58.48;95938.56;5041160;28;20253;-82
2023/09/07 02:12:17;;;;;;;3.58;3.28;;;;;;;17.96;58.34;95945.09;5040111;28;20756;-83
2023/09/07 02:14:42;;;;;;;3.25;2.97;;;;;;;17.91;58.23;95939.56;5042281;28;20180;-83
2023/09/07 02:17:07;;;;;;;3.17;2.88;;;;;;;17.87;58.56;95940.94;5025492;28;20186;-82
2023/09/07 02:19:33;;;;;;;3.25;2.95;;;;;;;17.81;58.57;95930.16;5029790;28;20640;-84
2023/09/07 02:21:58;;;;;;;3.38;3.08;;;;;;;17.82;58.90;95926.53;5044494;28;20250;-82
2023/09/07 02:24:23;;;;;;;2.97;2.72;;;;;;;17.78;58.71;95925.28;5041880;28;20199;-83
2023/09/07 02:26:49;;;;;;;4.55;3.03;;;;;;;17.73;59.31;95932.88;5023916;28;20246;-83
2023/09/07 02:29:14;;;;;;;4.05;2.65;;;;;;;17.76;59.24;95932.53;5037641;28;20204;-82
2023/09/07 02:31:40;;;;;;;3.42;3.10;;;;;;;17.75;59.37;95933.50;5029776;28;20217;-83
2023/09/07 02:34:05;;;;;;;4.03;3.05;;;;;;;17.76;60.00;95923.84;5022381;28;20182;-83
2023/09/07 02:36:31;;;;;;;6.07;3.28;;;;;;;17.75;59.92;95928.25;5028445;28;20270;-83
2023/09/07 02:38:56;;;;;;;3.25;2.97;;;;;;;17.75;60.27;95924.81;5045475;28;20239;-83
2023/09/07 02:41:21;;;;;;;4.32;3.05;;;;;;;17.70;60.38;95928.00;5040044;28;20663;-82
2023/09/07 02:43:47;;;;;;;5.22;3.45;;;;;;;17.69;60.65;95936.03;5040177;28;20241;-83
2023/09/07 02:46:12;;;;;;;4.82;3.22;;;;;;;17.69;60.68;95930.78;5039927;28;20186;-82
2023/09/07 02:48:37;;;;;;;3.63;3.20;;;;;;;17.72;60.81;95925.19;5028643;28;20197;-82
2023/09/07 02:51:02;;;;;;;3.28;2.97;;;;;;;17.74;60.87;95925.81;5021465;28;20190;-84
2023/09/07 02:53:29;;;;;;;5.03;3.17;;;;;;;17.71;61.21;95929.63;5042014;28;20206;-83
2023/09/07 02:55:54;;;;;;;3.47;3.13;;;;;;;17.72;60.97;95927.81;5028635;28;20181;-82
2023/09/07 02:58:19;;;;;;;3.80;3.38;;;;;;;17.77;61.52;95930.72;5041500;28;20652;-82
2023/09/07 03:00:46;;;;;;;5.47;3.75;;;;;;;17.72;61.41;95927.81;5042088;28;20663;-83
2023/09/07 03:03:12;;;;;;;4.55;3.45;;;;;;;17.67;61.19;95933.59;5016695;28;20206;-82
2023/09/07 03:05:41;;;;;;;4.03;3.38;;;;;;;17.67;61.60;95938.00;5036092;28;20213;-82
2023/09/07 03:08:08;;;;;;;12.82;4.25;;;;;;;17.60;62.12;95929.25;5030888;28;20197;-82
2023/09/07 03:10:34;;;;;;;3.63;3.30;;;;;;;17.58;62.28;95928.59;5044692;28;20551;-82
2023/09/07 03:13:00;;;;;;;3.50;3.15;;;;;;;17.62;62.27;95929.88;5038991;28;20194;-82
2023/09/07 03:15:25;;;;;;;4.93;3.40;;;;;;;17.61;62.51;95926.44;5046241;28;20179;-82
2023/09/07 03:17:50;;;;;;;4.72;3.30;;;;;;;17.64;62.18;95923.44;5032315;28;20189;-82
2023/09/07 03:20:16;;;;;;;6.45;3.53;;;;;;;17.62;62.46;95919.34;5028619;28;20980;-83
2023/09/07 03:22:42;;;;;;;3.30;3.00;;;;;;;17.62;63.09;95916.72;5046066;28;20907;-82
2023/09/07 03:25:09;;;;;;;4.22;3.83;;;;;;;17.58;62.90;95910.19;5036616;28;20290;-83
2023/09/07 03:27:34;;;;;;;6.85;3.63;;;;;;;17.56;63.26;95919.06;5043196;28;20183;-83
2023/09/07 03:29:59;;;;;;;7.63;3.95;;;;;;;17.58;63.14;95918.94;5044518;28;20185;-82
2023/09/07 03:32:26;;;;;;;3.83;3.42;;;;;;;17.62;63.03;95908.84;5043855;28;20194;-84
2023/09/07 03:34:52;;;;;;;5.47;3.50;;;;;;;17.60;63.05;95914.28;5045456;28;20185;-82
2023/09/07 03:37:17;;;;;;;3.80;3.50;;;;;;;17.57;63.61;95914.63;5041866;28;20187;-82
2023/09/07 03:39:42;;;;;;;3.58;3.28;;;;;;;17.54;63.53;95917.63;5036846;28;20190;-82
2023/09/07 03:42:08;;;;;;;5.00;3.53;;;;;;;17.57;63.61;95909.38;5024384;28;20206;-82
2023/09/07 03:44:33;;;;;;;5.05;3.03;;;;;;;17.56;63.46;95919.06;5045763;28;20718;-82
2023/09/07 03:47:00;;;;;;;4.53;3.80;;;;;;;17.49;64.17;95914.72;5044640;28;20178;-82
2023/09/07 03:49:25;;;;;;;3.83;3.40;;;;;;;17.50;64.03;95913.75;5041697;28;20261;-82
2023/09/07 03:51:51;;;;;;;4.32;3.92;;;;;;;17.47;64.29;95914.09;5022731;28;20290;-82
2023/09/07 03:54:16;;;;;;;5.53;3.95;;;;;;;17.49;64.48;95909.47;5031054;28;20573;-83
2023/09/07 03:56:41;;;;;;;4.05;3.67;;;;;;;17.51;64.63;95907.50;5027235;28;20655;-81
2023/09/07 03:59:07;;;;;;;5.00;3.65;;;;;;;17.47;65.28;95911.47;5030813;28;20184;-81
2023/09/07 04:01:32;;;;;;;4.22;3.70;;;;;;;17.49;65.26;95912.09;5019271;28;20800;-81
2023/09/07 04:03:58;;;;;;;7.38;4.18;;;;;;;17.50;65.65;95905.88;5020460;28;20210;-81
2023/09/07 04:06:24;;;;;;;7.18;4.03;;;;;;;17.52;65.77;95909.13;5027011;28;20266;-81
2023/09/07 04:08:49;;;;;;;4.50;3.67;;;;;;;17.51;65.73;95907.50;5044952;28;20642;-81
2023/09/07 04:11:14;;;;;;;4.82;3.65;;;;;;;17.51;66.10;95899.63;5044386;28;20188;-81
2023/09/07 04:13:40;;;;;;;5.47;3.85;;;;;;;17.51;65.91;95910.13;5032455;28;20193;-81
2023/09/07 04:16:05;;;;;;;4.38;3.75;;;;;;;17.47;65.97;95911.47;5021150;28;20177;-81
2023/09/07 04:18:30;;;;;;;4.75;4.30;;;;;;;17.43;66.44;95902.34;5031152;28;20189;-81
2023/09/07 04:21:05;;;;;;;5.00;4.57;;;;;;;17.44;66.55;95912.66;5030235;28;20189;-81
2023/09/07 04:23:31;;;;;;;4.68;4.25;;;;;;;17.36;66.88;95911.94;5031911;28;20219;-80
2023/09/07 04:26:07;;;;;;;6.28;4.53;;;;;;;17.37;67.13;95916.19;5054820;28;20189;-80
2023/09/07 04:28:32;;;;;;;5.63;4.07;;;;;;;17.34;67.07;95900.81;5034450;28;20189;-81
2023/09/07 04:30:58;;;;;;;4.68;4.18;;;;;;;17.26;67.42;95905.16;5042296;28;20205;-81
2023/09/07 04:33:23;;;;;;;5.90;4.50;;;;;;;17.20;68.15;95900.59;5041283;28;20702;-82
2023/09/07 04:35:48;;;;;;;4.57;4.05;;;;;;;17.23;67.89;95905.50;5046547;28;20261;-82
2023/09/07 04:38:14;;;;;;;5.82;4.13;;;;;;;17.12;68.29;95895.44;5035093;28;20714;-84
2023/09/07 04:40:39;;;;;;;5.82;4.30;;;;;;;17.19;68.15;95904.22;5042399;28;20265;-82
2023/09/07 04:43:04;;;;;;;4.40;4.00;;;;;;;17.22;68.25;95901.22;5024006;28;20197;-81
2023/09/07 04:45:30;;;;;;;5.35;4.85;;;;;;;17.21;68.29;95904.03;5027799;28;20206;-82
2023/09/07 04:47:55;;;;;;;4.50;4.07;;;;;;;17.16;68.65;95901.16;5037324;28;20185;-81
2023/09/07 04:50:20;;;;;;;4.97;4.50;;;;;;;17.12;68.55;95903.31;5031831;28;20660;-82
2023/09/07 04:52:45;;;;;;;5.38;4.88;;;;;;;17.13;68.64;95904.94;5022515;28;20271;-82
2023/09/07 04:55:11;;;;;;;5.13;3.92;;;;;;;17.24;68.78;95901.91;5027685;28;20227;-80
2023/09/07 04:57:37;;;;;;;4.82;4.32;;;;;;;17.20;68.92;95897.16;5038597;28;20186;-81
2023/09/07 05:00:03;;;;;;;4.85;4.20;;;;;;;17.25;68.62;95900.09;5024184;28;20183;-82
2023/09/07 05:02:28;;;;;;;7.63;4.75;;;;;;;17.25;68.84;95898.28;5032753;28;20204;-81
2023/09/07 05:04:54;;;;;;;4.75;4.35;;;;;;;17.31;68.61;95890.66;5031756;28;20191;-80
2023/09/07 05:07:19;;;;;;;5.07;4.03;;;;;;;17.33;68.29;95889.50;5027014;28;20181;-80
2023/09/07 05:09:44;;;;;;;7.22;4.40;;;;;;;17.30;68.34;95894.28;5040046;28;20269;-79
2023/09/07 05:12:10;;;;;;;4.75;4.35;;;;;;;17.31;68.71;95894.09;5023755;28;20206;-80
2023/09/07 05:14:36;;;;;;;5.60;5.10;;;;;;;17.36;68.55;95901.44;5025208;28;20181;-81
2023/09/07 05:17:01;;;;;;;5.75;4.50;;;;;;;17.40;68.55;95892.19;5022873;28;20186;-82
2023/09/07 05:19:27;;;;;;;6.10;4.65;;;;;;;17.41;68.22;95894.66;5025571;28;20194;-83
2023/09/07 05:21:52;;;;;;;5.35;4.53;;;;;;;17.44;68.19;95893.47;5037752;28;20260;-81
2023/09/07 05:24:18;;;;;;;7.00;4.85;;;;;;;17.41;68.38;95896.47;5036047;28;20206;-81
2023/09/07 05:26:43;;;;;;;6.00;4.82;;;;;;;17.45;68.40;95903.78;5026419;28;20188;-77
2023/09/07 05:29:09;;;;;;;6.00;5.15;;;;;;;17.53;68.00;95908.94;5037378;28;20226;-77
2023/09/07 05:31:35;;;;;;;6.10;4.82;;;;;;;17.56;68.24;95907.75;5031653;28;20185;-77
2023/09/07 05:34:00;;;;;;;6.03;4.88;;;;;;;17.61;67.73;95910.66;5036398;28;20174;-77
2023/09/07 05:36:27;;;;;;;6.60;4.93;;;;;;;17.67;68.33;95917.81;5036869;28;20208;-77
2023/09/07 05:38:52;;;;;;;5.22;4.68;;;;;;;17.72;67.67;95918.09;5033012;28;20325;-77
2023/09/07 05:41:17;;;;;;;5.25;4.72;;;;;;;17.74;67.67;95916.09;5038203;28;20768;-77
2023/09/07 05:43:43;;;;;;;6.03;4.40;;;;;;;17.72;68.24;95915.47;5035023;28;20184;-77
2023/09/07 05:46:08;;;;;;;5.40;4.90;;;;;;;17.83;68.03;95919.44;5034419;28;20186;-77
2023/09/07 05:48:33;;;;;;;5.25;4.72;;;;;;;17.95;67.50;95922.44;5038035;28;20484;-79
2023/09/07 05:50:59;;;;;;;6.13;5.00;;;;;;;17.90;67.39;95919.53;5022477;28;20189;-77
2023/09/07 05:53:26;;;;;;;4.63;4.22;;;;;;;17.97;67.67;95923.88;5036692;28;20195;-77
2023/09/07 05:55:51;;;;;;;5.07;4.63;;;;;;;17.99;67.23;95921.06;5036362;28;20307;-77
2023/09/07 05:58:17;;;;;;;5.57;5.07;;;;;;;18.06;66.89;95929.84;5038928;28;20288;-78
2023/09/07 06:00:43;;;;;;;6.10;5.28;;;;;;;18.07;66.76;95934.09;5037389;28;20178;-78
2023/09/07 06:03:09;;;;;;;5.78;4.88;;;;;;;18.04;67.04;95923.97;5036001;28;20195;-78
2023/09/07 06:05:35;;;;;;;6.20;5.20;;;;;;;18.09;67.30;95927.66;5037780;28;20209;-78
2023/09/07 06:08:01;;;;;;;6.25;5.22;;;;;;;18.13;67.14;95929.94;5041675;28;20182;-78
2023/09/07 06:10:30;;;;;;;5.85;4.97;;;;;;;18.32;66.45;95922.25;5039237;28;20266;-78
2023/09/07 06:12:56;;;;;;;7.18;5.18;;;;;;;18.27;66.35;95923.78;5019382;28;20202;-78
2023/09/07 06:15:21;;;;;;;5.65;4.93;;;;;;;18.36;65.90;95930.56;5032415;28;20190;-78
2023/09/07 06:17:47;;;;;;;6.03;4.95;;;;;;;18.44;66.10;95924.38;5042203;28;20185;-78
2023/09/07 06:20:12;;;;;;;4.78;4.25;;;;;;;18.42;65.86;95923.75;5023818;28;20197;-78
2023/09/07 06:22:38;;;;;;;5.28;4.78;;;;;;;18.47;65.05;95918.75;5033809;28;20221;-78
2023/09/07 06:25:03;;;;;;;4.30;3.85;;;;;;;18.46;64.78;95930.25;5033981;28;20210;-78
2023/09/07 06:27:29;;;;;;;5.70;4.78;;;;;;;18.52;65.10;95921.63;5025302;28;20230;-78
2023/09/07 06:29:54;;;;;;;7.25;5.22;;;;;;;18.58;64.89;95929.59;5030059;28;20190;-78
2023/09/07 06:32:20;;;;;;;5.88;4.70;;;;;;;18.64;64.30;95930.63;5038764;28;20564;-78
2023/09/07 06:34:45;;;;;;;5.60;4.50;;;;;;;18.73;63.85;95934.81;5042076;28;20184;-78
2023/09/07 06:37:11;;;;;;;6.18;4.95;;;;;;;18.76;64.04;95937.06;5038587;28;20186;-80
2023/09/07 06:39:37;;;;;;;7.30;5.53;;;;;;;18.87;64.06;95941.81;5024768;28;20609;-79
2023/09/07 06:42:03;;;;;;;5.65;5.05;;;;;;;18.81;64.22;95936.50;5023769;28;20206;-80
2023/09/07 06:44:29;;;;;;;5.90;4.90;;;;;;;18.95;63.87;95935.59;5042388;28;20206;-78
2023/09/07 06:46:54;;;;;;;6.57;4.82;;;;;;;19.07;63.41;95941.16;5018936;28;20193;-80
2023/09/07 06:49:19;;;;;;;5.65;4.63;;;;;;;19.01;63.52;95944.56;5039270;28;20693;-79
2023/09/07 06:51:44;;;;;;;5.20;4.80;;;;;;;19.01;63.52;95947.22;5022133;28;20229;-79
2023/09/07 06:54:10;;;;;;;6.53;5.25;;;;;;;19.17;63.11;95946.91;5038233;28;20192;-79
2023/09/07 06:56:35;;;;;;;5.22;4.70;;;;;;;19.27;62.82;95954.50;5033033;28;20196;-79
2023/09/07 06:59:01;;;;;;;4.97;4.47;;;;;;;19.23;63.17;95954.03;5039229;28;20611;-78
2023/09/07 07:01:26;;;;;;;5.13;4.45;;;;;;;19.28;62.98;95956.94;5031353;28;20285;-78
2023/09/07 07:03:52;;;;;;;5.13;4.50;;;;;;;19.29;62.96;95955.13;5036726;28;20224;-77
2023/09/07 07:06:18;;;;;;;7.05;4.05;;;;;;;19.40;62.34;95963.28;5023687;28;20190;-78
2023/09/07 07:08:43;;;;;;;5.30;4.72;;;;;;;19.47;62.97;95964.16;5040529;28;20184;-78
2023/09/07 07:11:09;;;;;;;5.35;4.85;;;;;;;19.55;62.09;95962.38;5045477;28;20262;-78
2023/09/07 07:13:34;;;;;;;4.50;4.10;;;;;;;19.73;62.44;95968.81;5024010;28;20272;-78
2023/09/07 07:16:00;;;;;;;5.72;5.18;;;;;;;19.71;61.94;95967.38;5038415;28;20628;-78
2023/09/07 07:18:25;;;;;;;4.80;4.40;;;;;;;19.78;62.02;95968.19;5029189;28;20643;-78
2023/09/07 07:20:50;;;;;;;6.07;4.70;;;;;;;19.73;62.09;95963.53;5042599;28;20235;-78
2023/09/07 07:23:16;;;;;;;5.72;4.88;;;;;;;19.92;62.14;95966.47;5038375;28;20218;-78
2023/09/07 07:25:41;;;;;;;5.28;4.88;;;;;;;20.03;62.44;95968.53;5021122;28;20213;-78
2023/09/07 07:28:07;;;;;;;6.10;5.28;;;;;;;19.89;62.87;95970.31;5034520;28;20190;-78
2023/09/07 07:30:34;;;;;;;5.63;4.60;;;;;;;19.89;62.46;95970.31;5042279;28;20193;-78
2023/09/07 07:32:59;;;;;;;6.57;5.53;;;;;;;19.90;62.38;95966.66;5033891;28;20233;-78
2023/09/07 07:35:25;;;;;;;7.75;5.22;;;;;;;20.11;62.78;95964.91;5028359;28;20202;-78
2023/09/07 07:37:50;;;;;;;5.28;4.78;;;;;;;20.23;61.97;95964.19;5041922;28;20181;-78
2023/09/07 07:40:17;;;;;;;8.13;5.13;;;;;;;20.15;62.99;95966.16;5023672;28;20281;-78
2023/09/07 07:42:43;;;;;;;6.70;5.50;;;;;;;20.18;63.24;95960.50;5042660;28;20263;-77
2023/09/07 07:45:09;;;;;;;8.65;5.50;;;;;;;20.22;62.77;95961.72;5040029;28;20590;-80
2023/09/07 07:47:34;;;;;;;5.95;5.43;;;;;;;20.28;63.11;95966.22;5040736;28;20189;-83
2023/09/07 07:49:59;;;;;;;5.55;4.65;;;;;;;20.52;62.45;95956.97;5028210;28;20562;-83
2023/09/07 07:52:25;;;;;;;7.32;5.30;;;;;;;20.62;62.58;95965.31;5030289;28;20578;-83
2023/09/07 07:54:50;;;;;;;5.63;5.10;;;;;;;20.55;62.02;95954.75;5030946;28;21049;-82
2023/09/07 07:57:15;;;;;;;5.88;5.30;;;;;;;20.61;61.80;95959.25;5027163;28;20182;-83
2023/09/07 07:59:41;;;;;;;5.65;5.15;;;;;;;20.67;62.21;95959.44;5020345;28;20201;-81
2023/09/07 08:02:06;;;;;;;5.82;5.32;;;;;;;20.73;61.56;95970.00;5031503;28;20206;-79
2023/09/07 08:04:32;;;;;;;5.90;5.30;;;;;;;20.80;61.86;95957.63;5027429;28;20233;-81
2023/09/07 08:07:03;;;;;;;10.38;7.45;;;;;;;20.89;61.28;95963.53;5032347;28;20182;-81
2023/09/07 08:09:29;;;;;;;7.57;5.57;;;;;;;20.81;61.43;95959.25;5032423;28;20232;-81
2023/09/07 08:11:55;;;;;;;6.55;5.22;;;;;;;21.02;61.54;95958.25;5038504;28;20210;-81
2023/09/07 08:14:22;;;;;;;5.97;5.38;;;;;;;21.11;61.15;95959.69;5021625;28;21028;-80
2023/09/07 08:16:47;;;;;;;7.03;5.22;;;;;;;21.23;60.98;95957.25;5022326;28;20738;-79
2023/09/07 08:19:13;;;;;;;5.70;5.15;;;;;;;21.39;60.47;95958.72;5035292;28;20186;-79
2023/09/07 08:21:38;;;;;;;6.90;5.97;;;;;;;21.36;59.98;95964.38;5032590;28;20207;-80
2023/09/07 08:24:03;;;;;;;5.97;5.32;;;;;;;21.59;60.04;95958.66;5033389;28;20586;-81
2023/09/07 08:26:29;;;;;;;6.05;5.30;;;;;;;21.59;59.72;95959.47;5035459;28;20247;-80
2023/09/07 08:28:54;;;;;;;7.50;5.50;;;;;;;21.66;59.33;95967.41;5030875;28;20192;-80
2023/09/07 08:31:22;;;;;;;7.32;5.70;;;;;;;21.72;59.46;95962.09;5021691;28;20239;-80
2023/09/07 08:33:50;;;;;;;6.93;6.22;;;;;;;21.87;59.32;95961.03;5040270;28;20189;-81
2023/09/07 08:36:17;;;;;;;7.60;5.30;;;;;;;21.74;59.01;95961.91;5023675;28;20183;-80
2023/09/07 08:38:42;;;;;;;6.18;5.57;;;;;;;21.82;59.22;95958.19;5040376;28;20304;-80
2023/09/07 08:41:08;;;;;;;5.93;5.43;;;;;;;21.92;59.20;95961.25;5022035;28;20353;-81
2023/09/07 08:43:35;;;;;;;6.03;5.43;;;;;;;22.01;58.62;95962.63;5042985;28;20213;-81
2023/09/07 08:46:21;;;;;;;9.57;5.47;;;;;;;22.30;58.71;95962.13;5025622;28;20182;-81
2023/09/07 08:48:47;;;;;;;5.50;5.05;;;;;;;22.31;58.60;95970.88;5023013;28;20555;-81
2023/09/07 08:51:17;;;;;;;6.38;5.78;;;;;;;22.37;58.64;95969.25;5015669;28;20186;-81
2023/09/07 08:53:45;;;;;;;7.10;6.03;;;;;;;22.31;57.39;95970.88;5057684;28;20272;-80
2023/09/07 08:56:12;;;;;;;6.13;5.50;;;;;;;22.65;57.92;95964.41;5023431;28;20281;-81
2023/09/07 08:58:37;;;;;;;6.15;5.60;;;;;;;22.52;58.23;95970.56;5037550;28;20280;-80
2023/09/07 09:01:02;;;;;;;6.32;5.68;;;;;;;22.85;57.26;95969.59;5027671;28;20234;-81
2023/09/07 09:03:29;;;;;;;6.20;5.70;;;;;;;23.07;56.87;95967.41;5024325;28;20356;-81
2023/09/07 09:05:55;;;;;;;6.15;5.65;;;;;;;23.04;55.94;95968.63;5040458;28;20214;-81
2023/09/07 09:08:24;;;;;;;8.52;5.57;;;;;;;23.30;55.50;95972.91;5039595;28;20791;-81
2023/09/07 09:10:58;;;;;;;6.10;5.60;;;;;;;23.56;55.44;95979.81;5040979;28;20186;-81
2023/09/07 09:13:30;;;;;;;8.40;6.47;;;;;;;23.45;55.26;95978.72;5018395;28;20633;-80
2023/09/07 09:15:56;;;;;;;6.50;6.00;;;;;;;23.48;54.46;95976.66;5030955;28;20225;-81
2023/09/07 09:18:21;;;;;;;6.95;6.22;;;;;;;23.28;55.48;95971.53;5039263;28;20667;-81
2023/09/07 09:20:46;;;;;;;6.55;5.28;;;;;;;23.61;55.93;95968.63;5042218;28;20189;-81
2023/09/07 09:23:13;;;;;;;6.68;6.07;;;;;;;23.59;55.37;95974.13;5028581;28;20808;-81
2023/09/07 09:25:40;;;;;;;8.52;6.30;;;;;;;23.45;54.09;95973.41;5036316;28;20546;-81
2023/09/07 09:28:06;;;;;;;6.43;5.72;;;;;;;23.79;54.16;95971.28;5030803;28;20185;-81
2023/09/07 09:30:31;;;;;;;7.10;6.28;;;;;;;23.81;53.80;95968.41;5024657;28;20186;-81
2023/09/07 09:32:56;;;;;;;5.90;5.40;;;;;;;23.80;54.38;95967.59;5030771;28;20197;-81
2023/09/07 09:35:23;;;;;;;7.57;5.88;;;;;;;23.80;54.36;95967.59;5036894;28;20178;-81
2023/09/07 09:37:49;;;;;;;6.85;6.25;;;;;;;23.91;53.78;95961.56;5039529;28;20183;-81
2023/09/07 09:40:14;;;;;;;6.32;5.65;;;;;;;23.99;55.10;95963.09;5034528;28;20186;-80
2023/09/07 09:42:42;;;;;;;5.95;5.45;;;;;;;24.12;53.77;95965.63;5027950;28;20241;-81
2023/09/07 09:45:07;;;;;;;6.68;5.90;;;;;;;24.16;52.98;95963.31;5023610;28;20209;-77
2023/09/07 09:47:33;;;;;;;8.68;6.10;;;;;;;24.17;53.64;95965.75;5037263;28;20191;-78
2023/09/07 09:50:02;;;;;;;7.18;5.93;;;;;;;24.30;52.66;95967.44;5034663;28;20186;-76
2023/09/07 09:52:28;;;;;;;6.63;5.88;;;;;;;24.11;53.03;95960.50;5040160;28;20277;-78
2023/09/07 09:54:54;;;;;;;11.57;6.63;;;;;;;23.91;53.10;95958.09;5047867;28;20260;-77
2023/09/07 09:57:19;;;;;;;9.15;7.32;;;;;;;23.98;53.84;95969.44;5043896;28;20186;-77
2023/09/07 09:59:44;;;;;;;6.25;5.68;;;;;;;24.18;53.73;95964.72;5046743;28;20258;-77
2023/09/07 10:02:10;;;;;;;8.45;7.05;;;;;;;24.09;53.17;95963.41;5038137;28;20206;-78
2023/09/07 10:04:35;;;;;;;7.75;5.95;;;;;;;24.20;54.14;95970.59;5038874;28;20225;-77
2023/09/07 10:07:04;;;;;;;8.80;6.45;;;;;;;24.23;54.36;95967.53;5039951;28;20194;-78
2023/09/07 10:09:32;;;;;;;6.40;5.80;;;;;;;24.56;52.24;95966.34;5027951;28;20189;-83
2023/09/07 10:11:59;;;;;;;7.82;6.07;;;;;;;24.34;52.74;95968.63;5044855;28;20220;-81
2023/09/07 10:14:25;;;;;;;5.93;5.35;;;;;;;24.63;52.26;95972.34;5036879;28;20681;-82
2023/09/07 10:16:55;;;;;;;7.90;6.75;;;;;;;24.60;51.99;95964.03;5033604;28;20276;-80
2023/09/07 10:19:24;;;;;;;8.20;5.78;;;;;;;24.77;52.45;95957.03;5027388;28;20217;-82
2023/09/07 10:21:52;;;;;;;7.07;6.38;;;;;;;24.92;51.13;95964.59;5042195;28;20292;-80
2023/09/07 10:24:38;;;;;;;7.03;6.07;;;;;;;24.96;52.52;95965.75;5044320;28;20267;-82
2023/09/07 10:27:08;;;;;;;7.32;6.53;;;;;;;24.97;52.34;95964.72;5037453;28;20253;-83
2023/09/07 10:29:43;;;;;;;6.78;5.93;;;;;;;24.90;49.96;95956.84;5040234;28;20190;-83
2023/09/07 10:32:12;;;;;;;7.03;6.43;;;;;;;24.74;51.64;95954.84;5035614;28;20228;-83
2023/09/07 10:34:39;;;;;;;8.75;6.22;;;;;;;24.83;52.14;95961.47;5042938;28;20186;-83
2023/09/07 10:37:04;;;;;;;7.18;6.10;;;;;;;24.85;51.35;95956.72;5018763;28;20289;-82
2023/09/07 10:39:33;;;;;;;7.43;6.22;;;;;;;25.02;51.05;95955.06;5021347;28;20682;-81
2023/09/07 10:41:58;;;;;;;7.60;5.90;;;;;;;25.25;51.81;95953.47;5022586;28;20304;-82
2023/09/07 10:44:27;;;;;;;6.45;5.70;;;;;;;25.25;51.45;95942.84;5029832;28;20745;-82
2023/09/07 10:46:53;;;;;;;6.88;6.10;;;;;;;25.37;50.40;95949.78;5027970;28;20189;-83
2023/09/07 10:49:18;;;;;;;9.13;6.32;;;;;;;25.28;49.91;95942.41;5039453;28;20572;-83
2023/09/07 10:51:45;;;;;;;7.25;5.90;;;;;;;25.21;50.74;95947.00;5039358;28;20223;-83
2023/09/07 10:54:29;;;;;;;6.60;6.00;;;;;;;25.29;50.18;95947.47;5029717;28;20270;-83
2023/09/07 10:56:58;;;;;;;6.53;5.72;;;;;;;25.50;51.19;95946.09;5037863;28;20193;-82
2023/09/07 10:59:23;;;;;;;7.05;6.35;;;;;;;25.40;49.46;95941.34;5021577;28;20182;-82
2023/09/07 11:01:48;;;;;;;7.22;5.68;;;;;;;25.33;50.38;95939.84;5031306;28;20208;-82
2023/09/07 11:04:15;;;;;;;7.00;5.30;;;;;;;25.47;50.38;95929.81;5015420;28;20202;-83
2023/09/07 11:06:40;;;;;;;6.65;5.95;;;;;;;25.49;50.88;95938.34;5019039;28;20243;-82
2023/09/07 11:09:10;;;;;;;5.65;5.25;;;;;;;25.66;49.35;95929.44;5022478;28;20185;-83
2023/09/07 11:11:38;;;;;;;6.78;5.80;;;;;;;25.80;49.58;95922.06;5028580;28;20218;-83
2023/09/07 11:14:07;;;;;;;6.43;5.75;;;;;;;25.89;48.01;95930.50;5038014;28;20215;-83
2023/09/07 11:16:35;;;;;;;6.72;6.13;;;;;;;25.75;49.94;95929.91;5043258;28;20217;-83
2023/09/07 11:19:04;;;;;;;6.32;5.75;;;;;;;25.91;49.66;95929.19;5029989;28;20536;-82
2023/09/07 11:21:32;;;;;;;6.30;5.63;;;;;;;26.05;49.78;95934.25;5038849;28;21895;-82
2023/09/07 11:23:57;;;;;;;6.95;6.15;;;;;;;25.93;48.66;95924.44;5027698;28;20190;-82
2023/09/07 11:26:23;;;;;;;7.47;6.07;;;;;;;25.86;48.73;95923.75;5023037;28;20178;-82
2023/09/07 11:28:48;;;;;;;6.43;5.47;;;;;;;26.02;49.70;95927.56;5033165;28;20185;-83